Colorado Springs, CO (80941)

5:54 AM MDT on September 23, 2014 (GMT -0600)
Carefree Circle S & Windward Circle Village 7 | Change Station
CLOSE
Current Station
Personal Weather Station
Location: Colorado Springs, CO
Elevation: 6509 ft
Nearby Weather Stations

Elev 6509 ft 38.88 °N, 104.74 °W | Updated 6 seconds ago

Clear
Clear
47.3 °F
Feels Like 47 °F
N
0.0
Wind Variable Wind from East
Gusts 0.0 mph

Today
High -- | Low -- °F
--% Chance of Precip.
Yesterday
High -- | Low -- °F
Precip. -- in
6:47 AM 6:54 PM
Waning Crescent, 1% visible
Pressure 30.00 in
Visibility 10.0 miles
Clouds Clear
Windchill 47 °F
Dew Point 44 °F
Humidity 88%
Rainfall 0.00 in
Snow Depth 1 in , 0 in , 0 in
UV 0.0 out of 12
Pollen 5.10 out of 12
Air Quality Not available.
Flu Activity Not available.
METAR KCOS 231054Z 35007KT 10SM CLR 11/06 A3020 RMK AO2 SLP158 T01110056

More Conditions Fewer Conditions

Pressure 30.00 in
Visibility 10.0 miles
Clouds Clear
Windchill 47 °F
Dew Point 44 °F
Humidity 88%
Rainfall 0.00 in
Snow Depth 1 in , 0 in , 0 in
UV 0.0 out of 12
Pollen 5.10 out of 12
Air Quality Not available.
Flu Activity Not available.
METAR KCOS 231054Z 35007KT 10SM CLR 11/06 A3020 RMK AO2 SLP158 T01110056

More Conditions Fewer Conditions

10-Day Weather Forecast

Almanac

Astronomy

Sep. 23, 2014 Rise Set
Actual Time 6:47 AM MDT 6:54 PM MDT
Civil Twilight 6:21 AM MDT 7:20 PM MDT
Nautical Twilight 5:49 AM MDT 7:51 PM MDT
Astronomical Twilight 5:18 AM MDT 8:23 PM MDT
Moon 6:14 AM MDT 6:34 PM MDT
Length of Visible Light 12h 59m
Length of Day
12h 06m
Tomorrow will be 2m 32s shorter.
Waning Crescent, 1% of the Moon is Illuminated
Today
Waning Crescent
Sep 24
New
Oct 1
First Quarter
Oct 8
Full
Oct 15
Last Quarter

Today's Extremes

State Highs State Lows

Community

WunderPhotos

Upload Photos

1,755,644 photos uploaded!

WunderBlogs® & News

By Dr. Jeff Masters
Director of Meteorology, Weather Underground
By Kari Strenfel
Meteorologist, Weather Underground
By Christopher C. Burt
Weather Historian, Weather Underground
September 23, 2014
September 23, 2014
September 23, 2014

Nearby

Air Quality

  Air Quality AQ Index Pollutant
Yesterday Good
OZONE
Yesterday Good
PM2.5
Tuesday Good
PM2.5
Tuesday Good
OZONE

Snow Depth

Station Depth Elevation
Cascade #2 1 in 8920 ft
Lost Dog 0 in 9320 ft
Michigan Creek 0 in 10600 ft
Cochetopa Pass 0 in 10020 ft
Middle Fork Camp 1 in 9000 ft

Earthquake Activity

City Distance Mag. Time & Date
No recent earthquake activity has been reported nearby.
Minimum magnitude displayed is 2.5.

Coastal Water Temperatures

Place Temperature
No Stations Reporting

Nearby Weather Stations